createdAt,value
2018-03-04T00:00:16.517Z,69.5
2018-03-04T00:01:16.570Z,69.5
2018-03-04T00:02:16.834Z,69.0
2018-03-04T00:03:17.127Z,69.0
2018-03-04T00:04:16.413Z,68.9
2018-03-04T00:05:16.693Z,68.9
2018-03-04T00:06:16.962Z,68.8
2018-03-04T00:07:17.230Z,68.2
2018-03-04T00:08:16.512Z,68.2
2018-03-04T00:09:16.787Z,68.3
2018-03-04T00:10:17.067Z,68.4
2018-03-04T00:11:17.112Z,68.5
2018-03-04T00:12:16.390Z,68.5
2018-03-04T00:13:16.655Z,68.3
2018-03-04T00:14:16.933Z,67.8
2018-03-04T00:15:17.204Z,67.9
2018-03-04T00:16:16.471Z,67.8
2018-03-04T00:17:16.766Z,67.9
2018-03-04T00:18:17.040Z,67.8
2018-03-04T00:19:16.309Z,68.0
2018-03-04T00:20:16.593Z,68.0
2018-03-04T00:21:16.629Z,67.8
2018-03-04T00:22:16.898Z,68.2
2018-03-04T00:23:17.173Z,67.4
2018-03-04T00:24:16.454Z,67.5
2018-03-04T00:25:16.726Z,67.4
2018-03-04T00:26:17.005Z,67.5
2018-03-04T00:27:16.273Z,67.4
2018-03-04T00:28:16.555Z,67.3
2018-03-04T00:29:16.837Z,67.2
2018-03-04T00:30:17.114Z,67.2
2018-03-04T00:31:17.174Z,67.4
2018-03-04T00:32:16.450Z,67.5
2018-03-04T00:33:16.718Z,67.8
2018-03-04T00:34:16.993Z,67.6
2018-03-04T00:35:16.272Z,67.3
2018-03-04T00:36:16.535Z,67.4
2018-03-04T00:37:16.803Z,67.6
2018-03-04T00:38:17.067Z,67.5
2018-03-04T00:39:16.337Z,67.4
2018-03-04T00:40:16.606Z,66.8
2018-03-04T00:41:16.653Z,66.7
2018-03-04T00:42:16.919Z,66.8
2018-03-04T00:43:17.189Z,66.8
2018-03-04T00:44:16.460Z,66.9
2018-03-04T00:45:16.729Z,67.0
2018-03-04T00:46:16.989Z,66.8
2018-03-04T00:47:17.262Z,67.4
2018-03-04T00:48:16.533Z,67.2
2018-03-04T00:49:16.804Z,67.2
2018-03-04T00:50:17.081Z,67.2
2018-03-04T00:51:17.155Z,67.5
2018-03-04T00:52:16.429Z,67.3
2018-03-04T00:53:16.699Z,67.2
2018-03-04T00:54:16.959Z,67.4
2018-03-04T00:55:17.238Z,67.3
2018-03-04T00:56:16.518Z,67.3
2018-03-04T00:57:16.795Z,67.2
2018-03-04T00:58:17.065Z,67.4
2018-03-04T00:59:16.332Z,66.8
2018-03-04T01:00:16.608Z,66.8
2018-03-04T01:01:16.644Z,66.8
2018-03-04T01:02:16.911Z,67.0
2018-03-04T01:03:17.354Z,66.9
2018-03-04T01:04:16.613Z,67.0
2018-03-04T01:05:16.880Z,67.0
2018-03-04T01:06:17.144Z,66.9
2018-03-04T01:07:16.413Z,66.8
2018-03-04T01:08:16.684Z,66.8
2018-03-04T01:09:16.952Z,67.0
2018-03-04T01:10:17.226Z,67.0
2018-03-04T01:11:17.250Z,66.8
2018-03-04T01:12:16.963Z,66.9
2018-03-04T01:13:17.253Z,67.0
2018-03-04T01:14:16.523Z,67.0
2018-03-04T01:15:16.801Z,67.0
2018-03-04T01:16:17.082Z,67.7
2018-03-04T01:17:16.361Z,68.0
2018-03-04T01:18:16.632Z,67.8
2018-03-04T01:19:16.918Z,67.7
2018-03-04T01:20:17.197Z,67.8
2018-03-04T01:21:17.243Z,68.0
2018-03-04T01:22:16.512Z,67.8
2018-03-04T01:23:16.784Z,67.7
2018-03-04T01:24:17.065Z,67.7
2018-03-04T01:25:16.333Z,67.8
2018-03-04T01:26:16.607Z,67.8
2018-03-04T01:27:16.870Z,67.9
2018-03-04T01:28:17.147Z,67.8
2018-03-04T01:29:16.426Z,67.7
2018-03-04T01:30:16.701Z,67.8
2018-03-04T01:31:16.763Z,67.8
2018-03-04T01:32:17.030Z,68.0
2018-03-04T01:33:16.299Z,68.0
2018-03-04T01:34:16.572Z,68.0
2018-03-04T01:35:16.848Z,67.9
2018-03-04T01:36:17.122Z,67.9
2018-03-04T01:37:16.403Z,68.0
2018-03-04T01:38:16.688Z,68.2
2018-03-04T01:39:16.959Z,68.2
2018-03-04T01:40:17.233Z,68.2
2018-03-04T01:41:16.283Z,68.3
2018-03-04T01:42:16.547Z,68.3
2018-03-04T01:43:16.821Z,68.4
2018-03-04T01:44:17.092Z,69.0
2018-03-04T01:45:16.357Z,69.0
2018-03-04T01:46:16.619Z,69.0
2018-03-04T01:47:16.888Z,69.2
2018-03-04T01:48:17.555Z,69.3
2018-03-04T01:49:16.825Z,69.5
2018-03-04T01:50:17.104Z,69.5
2018-03-04T01:51:17.141Z,69.6
2018-03-04T01:52:16.417Z,69.7
2018-03-04T01:53:16.676Z,69.7
2018-03-04T01:54:16.955Z,70.5
2018-03-04T01:55:17.219Z,70.5
2018-03-04T01:56:16.487Z,70.6
2018-03-04T01:57:16.764Z,70.8
2018-03-04T01:58:17.046Z,70.8
2018-03-04T01:59:16.315Z,71.3
2018-03-04T02:00:16.598Z,71.5
2018-03-04T02:01:16.625Z,71.7
2018-03-04T02:02:16.907Z,71.8
2018-03-04T02:03:17.180Z,71.8
2018-03-04T02:04:16.455Z,72.5
2018-03-04T02:05:16.734Z,72.5
2018-03-04T02:06:17.007Z,72.6
2018-03-04T02:07:16.272Z,72.7
2018-03-04T02:08:16.532Z,72.7
2018-03-04T02:09:16.796Z,73.2
2018-03-04T02:10:17.073Z,73.4
2018-03-04T02:11:17.113Z,73.6
2018-03-04T02:12:16.394Z,73.7
2018-03-04T02:13:16.673Z,73.8
2018-03-04T02:14:16.943Z,74.4
2018-03-04T02:15:17.214Z,74.5
2018-03-04T02:16:16.495Z,74.7
2018-03-04T02:17:16.764Z,74.8
2018-03-04T02:18:17.027Z,74.9
2018-03-04T02:19:16.302Z,75.7
2018-03-04T02:20:16.560Z,75.7
2018-03-04T02:21:16.621Z,75.7
2018-03-04T02:22:16.891Z,75.7
2018-03-04T02:23:17.176Z,75.8
2018-03-04T02:24:16.457Z,75.8
2018-03-04T02:25:16.722Z,76.5
2018-03-04T02:26:16.996Z,76.5
2018-03-04T02:27:16.268Z,76.7
2018-03-04T02:28:16.539Z,76.8
2018-03-04T02:29:16.819Z,76.9
2018-03-04T02:30:17.107Z,77.1
2018-03-04T02:31:17.155Z,77.7
2018-03-04T02:32:16.439Z,77.8
2018-03-04T02:33:16.706Z,78.2
2018-03-04T02:34:16.998Z,78.2
2018-03-04T02:35:16.271Z,78.3
2018-03-04T02:36:16.546Z,79.0
2018-03-04T02:37:16.822Z,79.1
2018-03-04T02:38:17.096Z,79.2
2018-03-04T02:39:16.367Z,79.3
2018-03-04T02:40:16.648Z,79.5
2018-03-04T02:41:16.852Z,80.2
2018-03-04T02:42:17.120Z,80.2
2018-03-04T02:43:16.391Z,80.3
2018-03-04T02:44:16.656Z,80.7
2018-03-04T02:45:16.935Z,80.9
2018-03-04T02:46:17.222Z,81.6
2018-03-04T02:47:16.501Z,81.8
2018-03-04T02:48:16.771Z,81.8
2018-03-04T02:49:17.041Z,82.0
2018-03-04T02:50:16.323Z,82.7
2018-03-04T02:51:16.361Z,82.8
2018-03-04T02:52:16.678Z,83.0
2018-03-04T02:53:16.952Z,83.1
2018-03-04T02:54:17.222Z,83.2
2018-03-04T02:55:16.495Z,83.7
2018-03-04T02:56:16.769Z,83.7
2018-03-04T02:57:17.043Z,83.7
2018-03-04T02:58:16.306Z,83.8
2018-03-04T02:59:16.597Z,83.8
2018-03-04T03:00:16.884Z,84.3
2018-03-04T03:01:16.914Z,84.3
2018-03-04T03:02:17.192Z,84.3
2018-03-04T03:03:16.472Z,84.5
2018-03-04T03:04:16.756Z,84.5
2018-03-04T03:05:17.032Z,85.1
2018-03-04T03:06:16.311Z,85.2
2018-03-04T03:07:16.585Z,85.2
2018-03-04T03:08:16.857Z,85.3
2018-03-04T03:09:17.121Z,85.9
2018-03-04T03:10:16.400Z,85.9
2018-03-04T03:11:16.437Z,86.0
2018-03-04T03:12:16.979Z,86.0
2018-03-04T03:13:17.242Z,86.5
2018-03-04T03:14:16.519Z,86.5
2018-03-04T03:15:16.787Z,86.5
2018-03-04T03:16:17.070Z,86.5
2018-03-04T03:17:16.342Z,87.1
2018-03-04T03:18:16.605Z,87.1
2018-03-04T03:19:16.876Z,87.0
2018-03-04T03:20:17.149Z,87.0
2018-03-04T03:21:17.207Z,87.0
2018-03-04T03:22:16.477Z,87.7
2018-03-04T03:23:16.747Z,87.7
2018-03-04T03:24:17.019Z,87.7
2018-03-04T03:25:16.290Z,87.7
2018-03-04T03:26:16.556Z,87.7
2018-03-04T03:27:16.819Z,88.1
2018-03-04T03:28:17.084Z,88.1
2018-03-04T03:29:16.354Z,88.1
2018-03-04T03:30:16.632Z,88.1
2018-03-04T03:31:16.696Z,88.0
2018-03-04T03:32:16.974Z,88.0
2018-03-04T03:33:17.240Z,88.1
2018-03-04T03:34:16.518Z,88.6
2018-03-04T03:35:16.789Z,88.6
2018-03-04T03:36:17.061Z,88.6
2018-03-04T03:37:16.342Z,88.6
2018-03-04T03:38:16.617Z,88.6
2018-03-04T03:39:16.897Z,88.6
2018-03-04T03:40:17.169Z,88.6
2018-03-04T03:41:17.478Z,88.7
2018-03-04T03:42:16.745Z,89.2
2018-03-04T03:43:16.343Z,89.2
2018-03-04T03:44:16.619Z,89.2
2018-03-04T03:45:16.895Z,89.2
2018-03-04T03:46:17.167Z,89.2
2018-03-04T03:47:16.439Z,89.1
2018-03-04T03:48:16.712Z,89.1
2018-03-04T03:49:16.975Z,89.1
2018-03-04T03:50:17.239Z,89.2
2018-03-04T03:51:16.280Z,89.2
2018-03-04T03:52:16.555Z,89.6
2018-03-04T03:53:16.818Z,89.5
2018-03-04T03:54:17.086Z,89.5
2018-03-04T03:55:16.345Z,89.5
2018-03-04T03:56:16.619Z,89.6
2018-03-04T03:57:16.888Z,89.6
2018-03-04T03:58:17.160Z,89.6
2018-03-04T03:59:16.422Z,89.6
2018-03-04T04:00:16.717Z,89.6
2018-03-04T04:01:16.750Z,89.6
2018-03-04T04:02:17.016Z,89.6
2018-03-04T04:03:16.283Z,89.6
2018-03-04T04:04:16.556Z,89.7
2018-03-04T04:05:16.824Z,90.2
2018-03-04T04:06:17.392Z,90.2
2018-03-04T04:07:16.678Z,90.2
2018-03-04T04:08:16.952Z,90.2
2018-03-04T04:09:17.221Z,90.2
2018-03-04T04:10:16.500Z,90.2
2018-03-04T04:11:16.542Z,90.1
2018-03-04T04:12:16.817Z,90.1
2018-03-04T04:13:17.089Z,90.1
2018-03-04T04:14:16.354Z,90.1
2018-03-04T04:15:16.626Z,90.1
2018-03-04T04:16:16.903Z,90.1
2018-03-04T04:17:17.174Z,90.2
2018-03-04T04:18:16.434Z,90.1
2018-03-04T04:19:16.700Z,90.1
2018-03-04T04:20:16.978Z,90.1
2018-03-04T04:21:17.011Z,90.1
2018-03-04T04:22:16.280Z,90.1
2018-03-04T04:23:16.548Z,90.1
2018-03-04T04:24:16.818Z,90.6
2018-03-04T04:25:17.088Z,90.6
2018-03-04T04:26:16.360Z,90.6
2018-03-04T04:27:16.640Z,90.6
2018-03-04T04:28:16.919Z,90.6
2018-03-04T04:29:17.181Z,90.6
2018-03-04T04:30:16.458Z,90.6
2018-03-04T04:31:16.498Z,90.6
2018-03-04T04:32:16.808Z,90.6
2018-03-04T04:33:17.079Z,90.5
2018-03-04T04:34:16.346Z,90.5
2018-03-04T04:35:16.615Z,90.5
2018-03-04T04:36:16.881Z,90.5
2018-03-04T04:37:17.154Z,90.5
2018-03-04T04:38:16.424Z,90.5
2018-03-04T04:39:16.698Z,90.5
2018-03-04T04:40:16.980Z,90.5
2018-03-04T04:41:17.005Z,90.5
2018-03-04T04:42:16.277Z,90.5
2018-03-04T04:43:16.872Z,90.5
2018-03-04T04:44:17.138Z,90.5
2018-03-04T04:45:16.431Z,90.6
2018-03-04T04:46:16.700Z,90.6
2018-03-04T04:47:16.972Z,90.6
2018-03-04T04:48:17.249Z,90.5
2018-03-04T04:49:16.513Z,90.5
2018-03-04T04:50:16.792Z,90.5
2018-03-04T04:51:16.823Z,90.5
2018-03-04T04:52:17.089Z,90.5
2018-03-04T04:53:16.361Z,90.5
2018-03-04T04:54:16.637Z,90.5
2018-03-04T04:55:16.923Z,90.5
2018-03-04T04:56:17.184Z,90.5
2018-03-04T04:57:16.452Z,90.5
2018-03-04T04:58:16.732Z,90.5
2018-03-04T04:59:16.997Z,90.5
2018-03-04T05:00:16.285Z,90.5
2018-03-04T05:01:16.337Z,90.4
2018-03-04T05:02:16.607Z,90.9
2018-03-04T05:03:16.886Z,90.9
2018-03-04T05:04:17.155Z,90.9
2018-03-04T05:05:16.427Z,90.9
2018-03-04T05:06:16.697Z,90.8
2018-03-04T05:07:16.973Z,90.8
2018-03-04T05:08:17.235Z,90.8
2018-03-04T05:09:16.511Z,90.8
2018-03-04T05:10:16.793Z,90.8
2018-03-04T05:11:16.832Z,90.8
2018-03-04T05:12:17.103Z,90.8
2018-03-04T05:13:16.373Z,90.8
2018-03-04T05:14:16.642Z,90.8
2018-03-04T05:15:16.916Z,90.8
2018-03-04T05:16:17.203Z,90.8
2018-03-04T05:17:16.469Z,90.8
2018-03-04T05:18:16.730Z,90.7
2018-03-04T05:19:16.994Z,90.8
2018-03-04T05:20:16.273Z,90.8
2018-03-04T05:21:16.308Z,90.8
2018-03-04T05:22:16.578Z,90.8
2018-03-04T05:23:16.846Z,90.6
2018-03-04T05:24:17.103Z,90.6
2018-03-04T05:25:16.371Z,90.7
2018-03-04T05:26:16.641Z,90.7
2018-03-04T05:27:16.925Z,90.7
2018-03-04T05:28:17.207Z,90.7
2018-03-04T05:29:16.481Z,90.6
2018-03-04T05:30:16.757Z,90.6
2018-03-04T05:31:16.799Z,90.7
2018-03-04T05:32:17.066Z,90.7
2018-03-04T05:33:16.337Z,90.7
2018-03-04T05:34:16.608Z,90.7
2018-03-04T05:35:16.887Z,90.7
2018-03-04T05:36:17.164Z,90.7
2018-03-04T05:37:16.432Z,90.7
2018-03-04T05:38:16.708Z,90.6
2018-03-04T05:39:16.970Z,90.6
2018-03-04T05:40:17.253Z,90.7
2018-03-04T05:41:16.318Z,90.7
2018-03-04T05:42:16.593Z,90.7
2018-03-04T05:43:16.862Z,90.7
2018-03-04T05:44:17.127Z,90.7
2018-03-04T05:45:16.403Z,90.7
2018-03-04T05:46:16.672Z,90.7
2018-03-04T05:47:16.937Z,90.6
2018-03-04T05:48:17.210Z,90.6
2018-03-04T05:49:16.485Z,90.7
2018-03-04T05:50:16.768Z,90.7
2018-03-04T05:51:16.798Z,90.6
2018-03-04T05:52:17.107Z,90.6
2018-03-04T05:53:16.370Z,90.6
2018-03-04T05:54:16.641Z,90.7
2018-03-04T05:55:16.914Z,90.7
2018-03-04T05:56:17.332Z,90.7
2018-03-04T05:57:16.605Z,90.7
2018-03-04T05:58:16.882Z,90.5
2018-03-04T05:59:17.151Z,90.5
2018-03-04T06:00:16.432Z,90.5
2018-03-04T06:01:16.470Z,90.6
2018-03-04T06:02:16.749Z,90.6
2018-03-04T06:03:17.023Z,90.6
2018-03-04T06:04:16.299Z,90.5
2018-03-04T06:05:16.578Z,90.5
2018-03-04T06:06:16.854Z,90.6
2018-03-04T06:07:17.130Z,90.5
2018-03-04T06:08:16.400Z,90.5
2018-03-04T06:09:16.714Z,90.5
2018-03-04T06:10:16.988Z,90.5
2018-03-04T06:11:17.028Z,90.5
2018-03-04T06:12:16.358Z,90.5
2018-03-04T06:13:16.626Z,90.5
2018-03-04T06:14:16.905Z,90.5
2018-03-04T06:15:17.171Z,90.5
2018-03-04T06:16:16.452Z,90.5
2018-03-04T06:17:16.721Z,90.4
2018-03-04T06:18:16.987Z,90.4
2018-03-04T06:19:16.253Z,90.4
2018-03-04T06:20:16.540Z,90.4
2018-03-04T06:21:16.565Z,90.3
2018-03-04T06:22:16.822Z,90.3
2018-03-04T06:23:17.094Z,90.3
2018-03-04T06:24:16.363Z,90.3
2018-03-04T06:25:16.648Z,90.3
2018-03-04T06:26:16.916Z,90.2
2018-03-04T06:27:17.180Z,90.3
2018-03-04T06:28:16.462Z,90.3
2018-03-04T06:29:16.736Z,90.3
2018-03-04T06:30:17.010Z,90.3
2018-03-04T06:31:17.063Z,90.2
2018-03-04T06:32:16.329Z,90.3
2018-03-04T06:33:16.602Z,90.2
2018-03-04T06:34:16.881Z,90.2
2018-03-04T06:35:17.157Z,90.2
2018-03-04T06:36:16.445Z,90.2
2018-03-04T06:37:16.716Z,90.2
2018-03-04T06:38:16.993Z,90.2
2018-03-04T06:39:16.257Z,90.2
2018-03-04T06:40:16.536Z,90.1
2018-03-04T06:41:16.573Z,90.0
2018-03-04T06:42:16.856Z,90.0
2018-03-04T06:43:17.237Z,90.0
2018-03-04T06:44:16.559Z,90.0
2018-03-04T06:45:16.835Z,90.0
2018-03-04T06:46:17.110Z,90.0
2018-03-04T06:47:16.376Z,90.0
2018-03-04T06:48:16.644Z,90.0
2018-03-04T06:49:17.301Z,89.9
2018-03-04T06:50:16.579Z,89.3
2018-03-04T06:51:16.614Z,89.4
2018-03-04T06:52:16.900Z,89.5
2018-03-04T06:53:17.174Z,89.5
2018-03-04T06:54:16.448Z,89.4
2018-03-04T06:55:16.728Z,89.4
2018-03-04T06:56:17.001Z,89.3
2018-03-04T06:57:16.283Z,89.2
2018-03-04T06:58:16.548Z,89.2
2018-03-04T06:59:16.813Z,89.2
2018-03-04T07:00:17.089Z,89.3
2018-03-04T07:01:17.145Z,89.2
2018-03-04T07:02:16.416Z,89.2
2018-03-04T07:03:16.687Z,89.1
2018-03-04T07:04:16.966Z,89.2
2018-03-04T07:05:17.244Z,89.1
2018-03-04T07:06:16.516Z,89.2
2018-03-04T07:07:17.712Z,89.2
2018-03-04T07:08:17.256Z,89.0
2018-03-04T07:09:16.522Z,89.0
2018-03-04T07:10:16.808Z,89.0
2018-03-04T07:11:16.852Z,89.0
2018-03-04T07:12:17.169Z,89.0
2018-03-04T07:13:16.441Z,88.9
2018-03-04T07:14:16.719Z,88.9
2018-03-04T07:15:17.013Z,88.9
2018-03-04T07:16:16.278Z,88.8
2018-03-04T07:17:16.548Z,88.2
2018-03-04T07:18:16.812Z,88.2
2018-03-04T07:19:17.080Z,88.2
2018-03-04T07:20:16.352Z,88.2
2018-03-04T07:21:16.396Z,88.2
2018-03-04T07:22:16.666Z,88.2
2018-03-04T07:23:16.933Z,88.3
2018-03-04T07:24:17.215Z,88.3
2018-03-04T07:25:16.483Z,88.3
2018-03-04T07:26:16.751Z,88.3
2018-03-04T07:27:17.029Z,88.3
2018-03-04T07:28:16.302Z,88.3
2018-03-04T07:29:16.585Z,88.2
2018-03-04T07:30:16.861Z,88.2
2018-03-04T07:31:16.896Z,88.2
2018-03-04T07:32:17.173Z,87.7
2018-03-04T07:33:16.433Z,87.7
2018-03-04T07:34:16.709Z,87.7
2018-03-04T07:35:16.980Z,87.5
2018-03-04T07:36:17.254Z,87.5
2018-03-04T07:37:16.518Z,87.5
2018-03-04T07:38:16.783Z,87.5
2018-03-04T07:39:17.051Z,87.5
2018-03-04T07:40:16.329Z,87.5
2018-03-04T07:41:16.364Z,87.5
2018-03-04T07:42:16.634Z,87.4
2018-03-04T07:43:16.906Z,87.5
2018-03-04T07:44:17.188Z,87.5
2018-03-04T07:45:16.462Z,87.1
2018-03-04T07:46:16.747Z,87.2
2018-03-04T07:47:17.122Z,87.2
2018-03-04T07:48:16.400Z,87.1
2018-03-04T07:49:16.658Z,87.0
2018-03-04T07:50:16.938Z,87.0
2018-03-04T07:51:16.985Z,86.8
2018-03-04T07:52:17.250Z,86.6
2018-03-04T07:53:16.548Z,86.5
2018-03-04T07:54:16.828Z,86.4
2018-03-04T07:55:17.097Z,85.9
2018-03-04T07:56:16.372Z,85.8
2018-03-04T07:57:16.642Z,86.1
2018-03-04T07:58:16.909Z,85.8
2018-03-04T07:59:17.180Z,85.7
2018-03-04T08:00:16.472Z,85.5
2018-03-04T08:01:16.516Z,85.7
2018-03-04T08:02:16.783Z,85.1
2018-03-04T08:03:17.055Z,84.8
2018-03-04T08:04:16.320Z,85.0
2018-03-04T08:05:16.598Z,84.8
2018-03-04T08:06:16.872Z,84.2
2018-03-04T08:07:17.148Z,84.0
2018-03-04T08:08:16.417Z,83.7
2018-03-04T08:09:16.695Z,83.6
2018-03-04T08:10:16.970Z,83.8
2018-03-04T08:11:17.016Z,83.4
2018-03-04T08:12:16.287Z,83.4
2018-03-04T08:13:16.561Z,83.2
2018-03-04T08:14:16.828Z,82.7
2018-03-04T08:15:17.103Z,82.8
2018-03-04T08:16:16.365Z,82.8
2018-03-04T08:17:16.632Z,82.5
2018-03-04T08:18:16.903Z,82.0
2018-03-04T08:19:17.181Z,82.0
2018-03-04T08:20:16.463Z,81.8
2018-03-04T08:21:16.509Z,81.5
2018-03-04T08:22:16.776Z,80.7
2018-03-04T08:23:17.055Z,80.6
2018-03-04T08:24:16.326Z,80.8
2018-03-04T08:25:16.601Z,81.0
2018-03-04T08:26:16.866Z,80.5
2018-03-04T08:27:17.142Z,80.5
2018-03-04T08:28:16.417Z,80.2
2018-03-04T08:29:16.687Z,79.8
2018-03-04T08:30:16.964Z,79.8
2018-03-04T08:31:17.012Z,79.0
2018-03-04T08:32:16.277Z,79.2
2018-03-04T08:33:16.546Z,78.6
2018-03-04T08:34:16.817Z,78.9
2018-03-04T08:35:17.081Z,78.7
2018-03-04T08:36:16.352Z,78.9
2018-03-04T08:37:16.625Z,78.7
2018-03-04T08:38:16.899Z,78.8
2018-03-04T08:39:17.169Z,78.5
2018-03-04T08:40:16.445Z,78.3
2018-03-04T08:41:16.478Z,77.8
2018-03-04T08:42:16.746Z,77.8
2018-03-04T08:43:17.008Z,78.2
2018-03-04T08:44:16.273Z,78.2
2018-03-04T08:45:16.547Z,78.2
2018-03-04T08:46:16.834Z,78.1
2018-03-04T08:47:17.103Z,76.2
2018-03-04T08:48:16.382Z,75.5
2018-03-04T08:49:16.660Z,75.0
2018-03-04T08:50:16.931Z,74.2
2018-03-04T08:51:16.980Z,74.7
2018-03-04T08:52:17.262Z,75.2
2018-03-04T08:53:16.549Z,75.2
2018-03-04T08:54:16.821Z,76.0
2018-03-04T08:55:17.088Z,75.8
2018-03-04T08:56:16.354Z,74.7
2018-03-04T08:57:16.614Z,74.5
2018-03-04T08:58:16.880Z,74.5
2018-03-04T08:59:17.156Z,74.5
2018-03-04T09:00:16.439Z,74.4
2018-03-04T09:01:16.477Z,74.0
2018-03-04T09:02:16.824Z,74.1
2018-03-04T09:03:17.102Z,73.6
2018-03-04T09:04:16.376Z,74.0
2018-03-04T09:05:16.658Z,73.8
2018-03-04T09:06:16.926Z,74.0
2018-03-04T09:07:17.219Z,73.8
2018-03-04T09:08:16.486Z,74.0
2018-03-04T09:09:16.764Z,73.3
2018-03-04T09:10:17.043Z,73.5
2018-03-04T09:11:17.073Z,73.4
2018-03-04T09:12:16.344Z,73.2
2018-03-04T09:13:16.628Z,73.0
2018-03-04T09:14:16.908Z,72.5
2018-03-04T09:15:17.173Z,71.5
2018-03-04T09:16:16.439Z,71.8
2018-03-04T09:17:16.708Z,71.4
2018-03-04T09:18:16.983Z,70.7
2018-03-04T09:19:17.262Z,70.1
2018-03-04T09:20:16.545Z,70.0
2018-03-04T09:21:16.584Z,69.5
2018-03-04T09:22:16.847Z,69.0
2018-03-04T09:23:17.193Z,68.5
2018-03-04T09:24:16.471Z,69.0
2018-03-04T09:25:16.746Z,68.2
2018-03-04T09:26:17.008Z,67.7
2018-03-04T09:27:16.273Z,67.7
2018-03-04T09:28:16.538Z,67.8
2018-03-04T09:29:16.814Z,67.2
2018-03-04T09:30:17.104Z,68.8
2018-03-04T09:31:17.116Z,67.0
2018-03-04T09:32:16.384Z,68.0
2018-03-04T09:33:16.655Z,67.5
2018-03-04T09:34:16.929Z,66.7
2018-03-04T09:35:17.196Z,68.0
2018-03-04T09:36:16.461Z,67.9
2018-03-04T09:37:16.726Z,67.2
2018-03-04T09:38:17.002Z,66.8
2018-03-04T09:39:16.269Z,66.8
2018-03-04T09:40:16.541Z,69.1
2018-03-04T09:41:16.588Z,67.5
2018-03-04T09:42:16.854Z,66.8
2018-03-04T09:43:17.134Z,67.5
2018-03-04T09:44:16.400Z,66.6
2018-03-04T09:45:16.671Z,64.8
2018-03-04T09:46:16.941Z,66.2
2018-03-04T09:47:17.207Z,66.2
2018-03-04T09:48:16.479Z,64.6
2018-03-04T09:49:16.758Z,64.8
2018-03-04T09:50:17.033Z,66.8
2018-03-04T09:51:17.067Z,66.0
2018-03-04T09:52:16.330Z,66.2
2018-03-04T09:53:16.597Z,65.8
2018-03-04T09:54:16.884Z,66.1
2018-03-04T09:55:17.148Z,67.8
2018-03-04T09:56:16.411Z,67.3
2018-03-04T09:57:16.676Z,64.2
2018-03-04T09:58:16.948Z,64.6
2018-03-04T09:59:17.222Z,64.7
2018-03-04T10:00:16.505Z,64.8
2018-03-04T10:01:16.537Z,64.7
2018-03-04T10:02:16.829Z,63.4
2018-03-04T10:03:17.103Z,62.5
2018-03-04T10:04:16.363Z,63.3
2018-03-04T10:05:16.637Z,64.2
2018-03-04T10:06:16.916Z,62.4
2018-03-04T10:07:17.246Z,62.1
2018-03-04T10:08:16.520Z,61.0
2018-03-04T10:09:16.784Z,62.8
2018-03-04T10:10:17.081Z,62.2
2018-03-04T10:11:17.107Z,62.6
2018-03-04T10:12:16.374Z,61.5
2018-03-04T10:13:16.650Z,61.5
2018-03-04T10:14:16.951Z,60.0
2018-03-04T10:15:17.350Z,59.1
2018-03-04T10:16:16.621Z,60.4
2018-03-04T10:17:16.887Z,59.7
2018-03-04T10:18:17.148Z,59.0
2018-03-04T10:19:16.437Z,58.9
2018-03-04T10:20:16.712Z,59.4
2018-03-04T10:21:16.761Z,61.4
2018-03-04T10:22:17.038Z,62.2
2018-03-04T10:23:16.326Z,60.9
2018-03-04T10:24:16.605Z,60.3
2018-03-04T10:25:16.870Z,60.2
2018-03-04T10:26:17.143Z,59.0
2018-03-04T10:27:16.410Z,58.5
2018-03-04T10:28:16.683Z,58.5
2018-03-04T10:29:16.953Z,58.8
2018-03-04T10:30:17.220Z,59.0
2018-03-04T10:31:16.295Z,60.5
2018-03-04T10:32:16.556Z,58.8
2018-03-04T10:33:16.827Z,58.5
2018-03-04T10:34:17.121Z,56.7
2018-03-04T10:35:16.396Z,57.5
2018-03-04T10:36:16.669Z,55.6
2018-03-04T10:37:16.936Z,56.5
2018-03-04T10:38:17.207Z,55.8
2018-03-04T10:39:16.485Z,58.1
2018-03-04T10:40:16.753Z,57.2
2018-03-04T10:41:16.782Z,56.4
2018-03-04T10:42:17.053Z,58.5
2018-03-04T10:43:16.314Z,58.7
2018-03-04T10:44:16.581Z,58.9
2018-03-04T10:45:16.853Z,57.0
2018-03-04T10:46:17.119Z,56.5
2018-03-04T10:47:16.399Z,56.5
2018-03-04T10:48:16.665Z,55.5
2018-03-04T10:49:16.935Z,55.9
2018-03-04T10:50:17.221Z,54.8
2018-03-04T10:51:17.242Z,54.6
2018-03-04T10:52:16.518Z,56.0
2018-03-04T10:53:16.783Z,55.5
2018-03-04T10:54:17.058Z,54.4
2018-03-04T10:55:16.327Z,55.2
2018-03-04T10:56:16.590Z,57.1
2018-03-04T10:57:16.858Z,56.8
2018-03-04T10:58:17.135Z,57.4
2018-03-04T10:59:16.398Z,57.2
2018-03-04T11:00:16.670Z,56.8
2018-03-04T11:01:16.718Z,57.5
2018-03-04T11:02:16.989Z,55.1
2018-03-04T11:03:16.259Z,54.1
2018-03-04T11:04:16.530Z,53.5
2018-03-04T11:05:16.800Z,55.3
2018-03-04T11:06:17.075Z,53.6
2018-03-04T11:07:16.350Z,54.4
2018-03-04T11:08:16.625Z,54.3
2018-03-04T11:09:16.901Z,54.9
2018-03-04T11:10:17.189Z,55.8
2018-03-04T11:11:17.244Z,57.0
2018-03-04T11:12:16.509Z,55.6
2018-03-04T11:13:16.787Z,55.3
2018-03-04T11:14:17.301Z,55.0
2018-03-04T11:15:16.672Z,55.0
2018-03-04T11:16:17.028Z,54.7
2018-03-04T11:17:16.314Z,54.6
2018-03-04T11:18:16.593Z,54.5
2018-03-04T11:19:16.870Z,54.2
2018-03-04T11:20:17.147Z,53.5
2018-03-04T11:21:17.216Z,53.3
2018-03-04T11:22:16.509Z,52.8
2018-03-04T11:23:16.842Z,53.5
2018-03-04T11:24:17.132Z,52.8
2018-03-04T11:25:16.468Z,52.6
2018-03-04T11:26:16.751Z,53.0
2018-03-04T11:27:17.017Z,52.8
2018-03-04T11:28:16.289Z,52.5
2018-03-04T11:29:16.558Z,53.7
2018-03-04T11:30:16.843Z,52.9
2018-03-04T11:31:16.886Z,52.5
2018-03-04T11:32:17.185Z,53.1
2018-03-04T11:33:16.455Z,54.3
2018-03-04T11:34:16.740Z,55.0
2018-03-04T11:35:17.109Z,55.2
2018-03-04T11:36:16.476Z,53.0
2018-03-04T11:37:16.841Z,53.8
2018-03-04T11:38:17.193Z,53.1
2018-03-04T11:39:16.564Z,53.9
2018-03-04T11:40:16.949Z,54.2
2018-03-04T11:41:17.053Z,54.9
2018-03-04T11:42:16.433Z,55.0
2018-03-04T11:43:16.786Z,53.9
2018-03-04T11:44:17.181Z,53.8
2018-03-04T11:45:16.551Z,54.5
2018-03-04T11:46:16.937Z,55.1
2018-03-04T11:47:17.325Z,55.0
2018-03-04T11:48:16.711Z,55.0
2018-03-04T11:49:17.053Z,55.4
2018-03-04T11:50:16.423Z,56.5
2018-03-04T11:51:16.474Z,55.9
2018-03-04T11:52:16.881Z,56.4
2018-03-04T11:53:17.227Z,55.7
2018-03-04T11:54:16.637Z,55.6
2018-03-04T11:55:17.007Z,55.4
2018-03-04T11:56:16.371Z,55.9
2018-03-04T11:57:16.750Z,56.0
2018-03-04T11:58:17.069Z,55.0
2018-03-04T11:59:16.428Z,54.8
2018-03-04T12:00:16.782Z,56.8
2018-03-04T12:01:16.891Z,55.8
2018-03-04T12:02:17.172Z,54.5
2018-03-04T12:03:16.489Z,54.5
2018-03-04T12:04:16.771Z,54.6
2018-03-04T12:05:17.055Z,54.8
2018-03-04T12:06:16.338Z,55.6
2018-03-04T12:07:16.611Z,56.1
2018-03-04T12:08:16.879Z,56.0
2018-03-04T12:09:17.162Z,55.7
2018-03-04T12:10:16.436Z,57.3
2018-03-04T12:11:16.479Z,57.1
2018-03-04T12:12:16.766Z,56.8
2018-03-04T12:13:17.047Z,56.4
2018-03-04T12:14:16.323Z,56.4
2018-03-04T12:15:16.678Z,56.5
2018-03-04T12:16:17.001Z,56.6
2018-03-04T12:17:16.290Z,56.8
2018-03-04T12:18:16.568Z,56.0
2018-03-04T12:19:16.905Z,56.0
2018-03-04T12:20:17.591Z,56.0
2018-03-04T12:21:17.252Z,56.2
2018-03-04T12:22:16.518Z,56.4
2018-03-04T12:23:16.793Z,56.5
2018-03-04T12:24:17.063Z,55.8
2018-03-04T12:25:16.340Z,56.2
2018-03-04T12:26:16.609Z,56.2
2018-03-04T12:27:16.880Z,56.2
2018-03-04T12:28:17.140Z,56.3
2018-03-04T12:29:16.378Z,56.3
2018-03-04T12:30:16.788Z,55.9
2018-03-04T12:31:16.788Z,56.0
2018-03-04T12:32:17.168Z,56.2
2018-03-04T12:33:16.537Z,56.2
2018-03-04T12:34:16.927Z,56.8
2018-03-04T12:35:17.291Z,57.0
2018-03-04T12:36:16.652Z,56.8
2018-03-04T12:37:17.012Z,56.7
2018-03-04T12:38:16.378Z,56.9
2018-03-04T12:39:16.654Z,56.9
2018-03-04T12:40:16.927Z,57.1
2018-03-04T12:41:16.962Z,56.5
2018-03-04T12:42:17.236Z,56.5
2018-03-04T12:43:16.509Z,56.7
2018-03-04T12:44:16.781Z,56.7
2018-03-04T12:45:17.064Z,56.8
2018-03-04T12:46:16.347Z,56.8
2018-03-04T12:47:16.621Z,56.6
2018-03-04T12:48:16.893Z,56.8
2018-03-04T12:49:17.213Z,56.5
2018-03-04T12:50:16.507Z,56.4
2018-03-04T12:51:16.543Z,55.9
2018-03-04T12:52:16.824Z,56.1
2018-03-04T12:53:17.089Z,56.0
2018-03-04T12:54:16.368Z,55.8
2018-03-04T12:55:16.634Z,55.8
2018-03-04T12:56:16.986Z,55.4
2018-03-04T12:57:16.417Z,55.4
2018-03-04T12:58:16.751Z,55.2
2018-03-04T12:59:17.136Z,55.2
2018-03-04T13:00:16.418Z,54.9
2018-03-04T13:01:16.516Z,55.0
2018-03-04T13:02:16.796Z,55.0
2018-03-04T13:03:17.083Z,55.1
2018-03-04T13:04:16.360Z,55.0
2018-03-04T13:05:16.631Z,55.2
2018-03-04T13:06:16.902Z,55.0
2018-03-04T13:07:17.176Z,55.1
2018-03-04T13:08:16.448Z,55.0
2018-03-04T13:09:16.713Z,54.9
2018-03-04T13:10:16.991Z,54.1
2018-03-04T13:11:17.032Z,54.4
2018-03-04T13:12:16.303Z,54.3
2018-03-04T13:13:16.571Z,54.4
2018-03-04T13:14:16.841Z,54.5
2018-03-04T13:15:17.112Z,54.5
2018-03-04T13:16:16.378Z,53.9
2018-03-04T13:17:16.646Z,53.7
2018-03-04T13:18:17.031Z,53.5